Αρχική σελίδα
METAR-TAF:

METAR-TAF

Αεροδρόμια :

Διεθνές Αεροδρόμιο του Μπαχρέιν

Μπαχρέιν, Μπαχρέιν

γεωγραφικό πλάτος: 26-16N, γεωγραφικό μήκος: 050-39E, υψόμετρο: 2 μ

Παρών καιρός

Η αναφορά έγινε 11 λεπτά πριν, στις 13:00 UTC
Άνεμος 15 kt από Β/BΔ
Θερμοκρασία 25°C
Υγρασία 54%
Πίεση 1017 hPa
Ορατότητα 10 χλμ και άνω
Λίγα νέφη σε ύψος 2500 πόδια

METAR: OBBI 191300Z 33015KT 9999 FEW025 25/15 Q1017 NOSIG

Χρόνος: 16:11 (13:11 UTC)

Πρόγνωση Καιρού

Η αναφορά έγινε 2 ώρες και 11 λεπτά πριν, στις 11:00 UTC
Η πρόγνωση ισχύει από τις 19 στις 12 UTC έως τις 20 στις 18 UTC
Άνεμος 13 kt από Β/BΔ
Ορατότητα 10 χλμ και άνω
Διάσπαρτα νέφη σε ύψος 2500 πόδια

TAF: OBBI 191100Z 1912/2018 33013KT 9999 SCT025

Μετεωρολογικές αναφορές και προγνώσεις για περισσότερα από 4000 αεροδρόμια (δελτία METAR και TAF).

Οι διαθέσιμοι σταθμοί απεικονίζονται στο χάρτη με κίτρινες και κόκκινες κουκκίδες.

Μετακινήστε το ποντίκι πάνω από τις κουκκίδες για να δείτε το όνομα του σταθμού.

Στη συνέχεια, κάντε κλικ για να δείτε τις μετεωρολογικές αναφορές και τις προγνώσεις καιρού.

Για να αλλάξετε το χάρτη: κάντε κλικ στα πράσινα κουμπιά με τον μαύρο σταυρό για να ζουμάρετε, στο πράσινο κουμπί με την παύλα για να αφαιρέσετε το ζουμ ή στα πράσινα βέλη για να αντιπαραβάλλετε χάρτες.


METAR-TAF: